sensor_id;sensor_type;location;lat;lon;timestamp;pressure;altitude;pressure_sealevel;temperature;humidity
69879;BME280;57161;43.136;24.706;2024-02-21T00:01:35;100027.66;;;6.15;80.83
69879;BME280;57161;43.136;24.706;2024-02-21T00:04:01;100024.78;;;5.98;81.36
69879;BME280;57161;43.136;24.706;2024-02-21T00:06:29;100033.84;;;5.98;81.53
69879;BME280;57161;43.136;24.706;2024-02-21T00:08:54;100015.59;;;5.86;81.50
69879;BME280;57161;43.136;24.706;2024-02-21T00:11:20;99995.25;;;5.69;81.51
69879;BME280;57161;43.136;24.706;2024-02-21T00:13:48;100011.41;;;5.70;81.88
69879;BME280;57161;43.136;24.706;2024-02-21T00:16:13;99985.91;;;5.66;81.91
69879;BME280;57161;43.136;24.706;2024-02-21T00:18:41;99948.06;;;5.32;81.85
69879;BME280;57161;43.136;24.706;2024-02-21T00:21:18;100005.91;;;5.76;81.83
69879;BME280;57161;43.136;24.706;2024-02-21T00:23:45;100012.13;;;5.65;81.61
69879;BME280;57161;43.136;24.706;2024-02-21T00:26:15;99995.97;;;5.64;81.44
69879;BME280;57161;43.136;24.706;2024-02-21T00:28:41;100003.13;;;5.76;81.08
69879;BME280;57161;43.136;24.706;2024-02-21T00:31:06;100001.50;;;5.64;81.19
69879;BME280;57161;43.136;24.706;2024-02-21T00:33:32;99997.22;;;5.63;81.84
69879;BME280;57161;43.136;24.706;2024-02-21T00:35:57;100003.00;;;5.59;81.79
69879;BME280;57161;43.136;24.706;2024-02-21T00:38:23;99996.34;;;5.51;81.84
69879;BME280;57161;43.136;24.706;2024-02-21T00:40:48;99992.41;;;5.58;81.57
69879;BME280;57161;43.136;24.706;2024-02-21T00:43:14;99987.88;;;5.60;81.85
69879;BME280;57161;43.136;24.706;2024-02-21T00:45:39;99956.72;;;5.39;81.70
69879;BME280;57161;43.136;24.706;2024-02-21T00:48:05;99987.78;;;5.49;81.52
69879;BME280;57161;43.136;24.706;2024-02-21T00:50:30;99956.47;;;5.17;82.20
69879;BME280;57161;43.136;24.706;2024-02-21T00:52:56;99984.41;;;5.39;82.32
69879;BME280;57161;43.136;24.706;2024-02-21T00:55:21;99997.56;;;5.45;82.29
69879;BME280;57161;43.136;24.706;2024-02-21T00:57:47;99990.66;;;5.34;82.34
69879;BME280;57161;43.136;24.706;2024-02-21T01:00:13;99987.69;;;5.38;82.23
69879;BME280;57161;43.136;24.706;2024-02-21T01:02:41;99991.97;;;5.39;82.36
69879;BME280;57161;43.136;24.706;2024-02-21T01:05:07;99923.81;;;5.01;82.05
69879;BME280;57161;43.136;24.706;2024-02-21T01:07:32;99975.06;;;5.37;82.04
69879;BME280;57161;43.136;24.706;2024-02-21T01:09:58;99993.31;;;5.49;81.72
69879;BME280;57161;43.136;24.706;2024-02-21T01:12:24;99964.75;;;5.37;81.67
69879;BME280;57161;43.136;24.706;2024-02-21T01:14:50;99941.81;;;5.37;81.46
69879;BME280;57161;43.136;24.706;2024-02-21T01:17:15;99978.63;;;5.69;81.14
69879;BME280;57161;43.136;24.706;2024-02-21T01:19:41;99961.91;;;5.58;80.91
69879;BME280;57161;43.136;24.706;2024-02-21T01:22:06;99953.34;;;5.61;80.35
69879;BME280;57161;43.136;24.706;2024-02-21T01:24:32;99973.94;;;5.81;80.43
69879;BME280;57161;43.136;24.706;2024-02-21T01:26:58;99968.38;;;5.81;80.82
69879;BME280;57161;43.136;24.706;2024-02-21T01:29:23;99964.75;;;6.00;80.43
69879;BME280;57161;43.136;24.706;2024-02-21T01:31:49;99948.03;;;5.89;80.50
69879;BME280;57161;43.136;24.706;2024-02-21T01:34:14;99968.13;;;6.10;80.35
69879;BME280;57161;43.136;24.706;2024-02-21T01:36:40;99959.53;;;6.08;79.94
69879;BME280;57161;43.136;24.706;2024-02-21T01:39:06;99957.31;;;6.18;79.52
69879;BME280;57161;43.136;24.706;2024-02-21T01:41:32;99951.44;;;6.05;79.86
69879;BME280;57161;43.136;24.706;2024-02-21T01:43:58;99951.94;;;6.03;80.01
69879;BME280;57161;43.136;24.706;2024-02-21T01:46:24;99956.69;;;5.97;80.50
69879;BME280;57161;43.136;24.706;2024-02-21T01:48:55;99957.69;;;5.99;80.34
69879;BME280;57161;43.136;24.706;2024-02-21T01:51:21;99953.81;;;5.86;80.80
69879;BME280;57161;43.136;24.706;2024-02-21T01:53:47;99950.75;;;5.84;80.79
69879;BME280;57161;43.136;24.706;2024-02-21T01:56:12;99925.81;;;5.52;81.27
69879;BME280;57161;43.136;24.706;2024-02-21T01:58:40;99938.47;;;5.59;81.59
69879;BME280;57161;43.136;24.706;2024-02-21T02:01:07;99943.53;;;5.60;81.76
69879;BME280;57161;43.136;24.706;2024-02-21T02:03:33;99951.34;;;5.62;82.02
69879;BME280;57161;43.136;24.706;2024-02-21T02:05:59;99949.06;;;5.60;82.21
69879;BME280;57161;43.136;24.706;2024-02-21T02:08:25;99953.66;;;5.69;81.79
69879;BME280;57161;43.136;24.706;2024-02-21T02:10:51;99898.13;;;5.26;81.91
69879;BME280;57161;43.136;24.706;2024-02-21T02:13:17;99958.41;;;5.63;82.19
69879;BME280;57161;43.136;24.706;2024-02-21T02:15:47;99949.94;;;5.72;81.98
69879;BME280;57161;43.136;24.706;2024-02-21T02:18:14;99952.50;;;5.81;81.51
69879;BME280;57161;43.136;24.706;2024-02-21T02:20:39;99955.59;;;5.89;81.12
69879;BME280;57161;43.136;24.706;2024-02-21T02:23:12;99944.44;;;5.83;81.25
69879;BME280;57161;43.136;24.706;2024-02-21T02:25:39;99944.66;;;5.74;81.41
69879;BME280;57161;43.136;24.706;2024-02-21T02:28:08;99958.09;;;5.87;81.41
69879;BME280;57161;43.136;24.706;2024-02-21T02:30:35;99955.34;;;5.87;81.40
69879;BME280;57161;43.136;24.706;2024-02-21T02:33:04;99955.88;;;5.91;81.58
69879;BME280;57161;43.136;24.706;2024-02-21T02:35:31;99948.22;;;5.80;81.20
69879;BME280;57161;43.136;24.706;2024-02-21T02:37:56;99943.47;;;5.86;81.22
69879;BME280;57161;43.136;24.706;2024-02-21T02:40:22;99939.13;;;5.80;81.41
69879;BME280;57161;43.136;24.706;2024-02-21T02:42:48;99946.50;;;5.88;81.31
69879;BME280;57161;43.136;24.706;2024-02-21T02:45:15;99936.00;;;5.66;81.87
69879;BME280;57161;43.136;24.706;2024-02-21T02:47:41;99940.28;;;5.67;81.98
69879;BME280;57161;43.136;24.706;2024-02-21T02:50:08;99945.63;;;5.71;82.09
69879;BME280;57161;43.136;24.706;2024-02-21T02:52:33;99901.78;;;5.38;82.54
69879;BME280;57161;43.136;24.706;2024-02-21T02:54:59;99946.25;;;5.55;82.73
69879;BME280;57161;43.136;24.706;2024-02-21T02:57:24;99944.00;;;5.59;82.76
69879;BME280;57161;43.136;24.706;2024-02-21T02:59:51;99938.88;;;5.46;83.27
69879;BME280;57161;43.136;24.706;2024-02-21T03:02:17;99950.22;;;5.48;83.46
69879;BME280;57161;43.136;24.706;2024-02-21T03:04:43;99950.28;;;5.54;83.49
69879;BME280;57161;43.136;24.706;2024-02-21T03:07:09;99928.13;;;5.28;83.12
69879;BME280;57161;43.136;24.706;2024-02-21T03:09:37;99892.72;;;5.11;83.22
69879;BME280;57161;43.136;24.706;2024-02-21T03:12:03;99949.41;;;5.42;83.28
69879;BME280;57161;43.136;24.706;2024-02-21T03:14:29;99954.63;;;5.34;83.37
69879;BME280;57161;43.136;24.706;2024-02-21T03:16:55;99951.44;;;5.41;83.23
69879;BME280;57161;43.136;24.706;2024-02-21T03:19:21;99918.72;;;5.20;83.17
69879;BME280;57161;43.136;24.706;2024-02-21T03:21:46;99909.59;;;5.13;83.13
69879;BME280;57161;43.136;24.706;2024-02-21T03:24:11;99907.47;;;5.03;83.07
69879;BME280;57161;43.136;24.706;2024-02-21T03:26:37;99946.50;;;5.25;83.32
69879;BME280;57161;43.136;24.706;2024-02-21T03:29:03;99944.84;;;5.13;83.38
69879;BME280;57161;43.136;24.706;2024-02-21T03:31:29;99940.59;;;5.18;83.37
69879;BME280;57161;43.136;24.706;2024-02-21T03:33:54;99901.00;;;4.86;83.57
69879;BME280;57161;43.136;24.706;2024-02-21T03:36:20;99937.75;;;5.06;83.70
69879;BME280;57161;43.136;24.706;2024-02-21T03:38:45;99951.78;;;5.03;83.94
69879;BME280;57161;43.136;24.706;2024-02-21T03:41:11;99913.22;;;4.73;84.32
69879;BME280;57161;43.136;24.706;2024-02-21T03:43:39;99954.03;;;4.99;84.41
69879;BME280;57161;43.136;24.706;2024-02-21T03:46:05;99968.34;;;4.97;84.55
69879;BME280;57161;43.136;24.706;2024-02-21T03:48:31;99908.53;;;4.59;84.77
69879;BME280;57161;43.136;24.706;2024-02-21T03:50:58;99949.97;;;4.74;85.15
69879;BME280;57161;43.136;24.706;2024-02-21T03:53:23;99942.84;;;4.67;85.58
69879;BME280;57161;43.136;24.706;2024-02-21T03:55:49;99938.81;;;4.68;85.17
69879;BME280;57161;43.136;24.706;2024-02-21T03:58:14;99965.94;;;4.85;85.21
69879;BME280;57161;43.136;24.706;2024-02-21T04:00:39;99964.69;;;4.86;84.92
69879;BME280;57161;43.136;24.706;2024-02-21T04:03:05;99952.38;;;4.87;85.12
69879;BME280;57161;43.136;24.706;2024-02-21T04:05:31;99900.53;;;4.41;85.06
69879;BME280;57161;43.136;24.706;2024-02-21T04:07:57;99942.72;;;4.76;85.02
69879;BME280;57161;43.136;24.706;2024-02-21T04:10:22;99934.63;;;4.73;84.99
69879;BME280;57161;43.136;24.706;2024-02-21T04:12:48;99962.63;;;4.80;85.50
69879;BME280;57161;43.136;24.706;2024-02-21T04:15:16;99939.94;;;4.76;85.27
69879;BME280;57161;43.136;24.706;2024-02-21T04:17:41;99952.00;;;4.73;85.26
69879;BME280;57161;43.136;24.706;2024-02-21T04:20:14;99955.56;;;4.79;85.30
69879;BME280;57161;43.136;24.706;2024-02-21T04:22:40;99951.28;;;4.78;85.39
69879;BME280;57161;43.136;24.706;2024-02-21T04:25:06;99936.22;;;4.59;85.58
69879;BME280;57161;43.136;24.706;2024-02-21T04:27:31;99926.25;;;4.47;85.35
69879;BME280;57161;43.136;24.706;2024-02-21T04:29:57;99940.50;;;4.60;85.48
69879;BME280;57161;43.136;24.706;2024-02-21T04:32:22;99905.00;;;4.38;85.33
69879;BME280;57161;43.136;24.706;2024-02-21T04:34:48;99940.34;;;4.69;84.61
69879;BME280;57161;43.136;24.706;2024-02-21T04:37:13;99974.59;;;4.92;84.01
69879;BME280;57161;43.136;24.706;2024-02-21T04:39:39;99969.28;;;4.89;84.51
69879;BME280;57161;43.136;24.706;2024-02-21T04:42:05;99936.44;;;4.56;84.63
69879;BME280;57161;43.136;24.706;2024-02-21T04:44:30;99926.19;;;4.62;84.37
69879;BME280;57161;43.136;24.706;2024-02-21T04:46:56;99934.47;;;4.62;84.54
69879;BME280;57161;43.136;24.706;2024-02-21T04:49:21;99975.50;;;4.83;84.66
69879;BME280;57161;43.136;24.706;2024-02-21T04:51:46;99972.47;;;4.81;84.66
69879;BME280;57161;43.136;24.706;2024-02-21T04:54:12;99973.16;;;4.76;84.93
69879;BME280;57161;43.136;24.706;2024-02-21T04:56:37;99969.91;;;4.78;84.60
69879;BME280;57161;43.136;24.706;2024-02-21T04:59:03;99961.66;;;4.83;84.27
69879;BME280;57161;43.136;24.706;2024-02-21T05:01:29;99971.63;;;4.75;84.41
69879;BME280;57161;43.136;24.706;2024-02-21T05:03:54;99969.91;;;4.78;84.42
69879;BME280;57161;43.136;24.706;2024-02-21T05:06:20;99931.44;;;4.39;84.71
69879;BME280;57161;43.136;24.706;2024-02-21T05:08:45;99965.97;;;4.64;84.67
69879;BME280;57161;43.136;24.706;2024-02-21T05:11:11;99966.72;;;4.65;85.26
69879;BME280;57161;43.136;24.706;2024-02-21T05:13:36;99969.28;;;4.68;84.91
69879;BME280;57161;43.136;24.706;2024-02-21T05:16:02;99966.38;;;4.77;84.63
69879;BME280;57161;43.136;24.706;2024-02-21T05:18:28;99959.22;;;4.71;84.66
69879;BME280;57161;43.136;24.706;2024-02-21T05:20:53;99974.59;;;4.92;84.39
69879;BME280;57161;43.136;24.706;2024-02-21T05:23:19;99963.19;;;4.85;84.76
69879;BME280;57161;43.136;24.706;2024-02-21T05:25:45;99983.47;;;4.96;84.55
69879;BME280;57161;43.136;24.706;2024-02-21T05:28:10;99969.66;;;5.02;83.97
69879;BME280;57161;43.136;24.706;2024-02-21T05:30:35;99988.41;;;5.12;83.64
69879;BME280;57161;43.136;24.706;2024-02-21T05:33:07;99968.91;;;5.01;83.77
69879;BME280;57161;43.136;24.706;2024-02-21T05:35:33;99959.84;;;5.01;83.42
69879;BME280;57161;43.136;24.706;2024-02-21T05:37:59;100000.38;;;5.24;83.50
69879;BME280;57161;43.136;24.706;2024-02-21T05:40:25;99992.75;;;5.39;82.98
69879;BME280;57161;43.136;24.706;2024-02-21T05:42:51;99957.63;;;5.31;82.13
69879;BME280;57161;43.136;24.706;2024-02-21T05:45:17;99986.59;;;5.56;82.13
69879;BME280;57161;43.136;24.706;2024-02-21T05:47:44;99963.50;;;5.38;82.28
69879;BME280;57161;43.136;24.706;2024-02-21T05:50:10;99940.78;;;5.34;81.39
69879;BME280;57161;43.136;24.706;2024-02-21T05:52:35;99979.59;;;5.66;81.46
69879;BME280;57161;43.136;24.706;2024-02-21T05:55:01;99991.25;;;5.70;81.58
69879;BME280;57161;43.136;24.706;2024-02-21T05:57:27;99993.78;;;5.73;81.62
69879;BME280;57161;43.136;24.706;2024-02-21T05:59:52;99977.47;;;5.81;80.51
69879;BME280;57161;43.136;24.706;2024-02-21T06:02:17;99997.63;;;6.08;80.01
69879;BME280;57161;43.136;24.706;2024-02-21T06:04:43;99993.09;;;6.10;79.83
69879;BME280;57161;43.136;24.706;2024-02-21T06:07:09;100001.72;;;6.18;79.61
69879;BME280;57161;43.136;24.706;2024-02-21T06:09:35;100002.19;;;6.16;79.41
69879;BME280;57161;43.136;24.706;2024-02-21T06:12:01;99997.97;;;6.21;79.09
69879;BME280;57161;43.136;24.706;2024-02-21T06:14:26;99998.03;;;6.32;78.77
69879;BME280;57161;43.136;24.706;2024-02-21T06:16:52;99994.72;;;6.28;78.47
69879;BME280;57161;43.136;24.706;2024-02-21T06:19:17;100015.47;;;6.38;78.30
69879;BME280;57161;43.136;24.706;2024-02-21T06:21:43;100009.44;;;6.40;78.55
69879;BME280;57161;43.136;24.706;2024-02-21T06:24:08;99993.72;;;6.31;78.65
69879;BME280;57161;43.136;24.706;2024-02-21T06:26:34;100014.56;;;6.52;78.49
69879;BME280;57161;43.136;24.706;2024-02-21T06:28:59;99994.56;;;6.43;77.86
69879;BME280;57161;43.136;24.706;2024-02-21T06:31:25;100018.13;;;6.64;77.80
69879;BME280;57161;43.136;24.706;2024-02-21T06:33:51;100002.22;;;6.65;77.54
69879;BME280;57161;43.136;24.706;2024-02-21T06:36:16;100009.81;;;6.64;77.64
69879;BME280;57161;43.136;24.706;2024-02-21T06:38:42;100014.59;;;6.63;77.87
69879;BME280;57161;43.136;24.706;2024-02-21T06:41:17;100008.03;;;6.61;78.17
69879;BME280;57161;43.136;24.706;2024-02-21T06:43:48;99999.72;;;6.67;77.60
69879;BME280;57161;43.136;24.706;2024-02-21T06:46:27;100024.53;;;6.81;78.00
69879;BME280;57161;43.136;24.706;2024-02-21T06:48:54;100012.47;;;6.90;77.50
69879;BME280;57161;43.136;24.706;2024-02-21T06:51:21;99988.41;;;6.76;77.49
69879;BME280;57161;43.136;24.706;2024-02-21T06:53:47;100018.03;;;6.96;77.16
69879;BME280;57161;43.136;24.706;2024-02-21T06:56:15;100024.66;;;7.15;77.03
69879;BME280;57161;43.136;24.706;2024-02-21T06:58:41;100017.84;;;7.10;77.10
69879;BME280;57161;43.136;24.706;2024-02-21T07:01:07;100015.31;;;7.12;76.85
69879;BME280;57161;43.136;24.706;2024-02-21T07:03:33;100019.84;;;7.15;77.15
69879;BME280;57161;43.136;24.706;2024-02-21T07:05:58;99972.06;;;6.95;76.88
69879;BME280;57161;43.136;24.706;2024-02-21T07:08:24;100026.00;;;7.42;76.23
69879;BME280;57161;43.136;24.706;2024-02-21T07:10:49;100008.81;;;7.38;76.07
69879;BME280;57161;43.136;24.706;2024-02-21T07:13:15;100032.88;;;7.52;75.94
69879;BME280;57161;43.136;24.706;2024-02-21T07:15:41;99974.91;;;7.22;75.51
69879;BME280;57161;43.136;24.706;2024-02-21T07:18:07;100010.38;;;7.50;75.35
69879;BME280;57161;43.136;24.706;2024-02-21T07:20:32;100034.66;;;7.66;75.51
69879;BME280;57161;43.136;24.706;2024-02-21T07:23:03;100010.38;;;7.56;75.40
69879;BME280;57161;43.136;24.706;2024-02-21T07:25:29;100031.38;;;7.85;74.93
69879;BME280;57161;43.136;24.706;2024-02-21T07:27:54;99946.13;;;7.37;74.59
69879;BME280;57161;43.136;24.706;2024-02-21T07:30:20;100025.56;;;7.94;74.82
69879;BME280;57161;43.136;24.706;2024-02-21T07:32:45;100028.84;;;8.03;74.29
69879;BME280;57161;43.136;24.706;2024-02-21T07:35:11;100013.69;;;7.99;74.20
69879;BME280;57161;43.136;24.706;2024-02-21T07:37:38;100031.09;;;8.27;73.50
69879;BME280;57161;43.136;24.706;2024-02-21T07:40:11;100031.34;;;8.29;73.61
69879;BME280;57161;43.136;24.706;2024-02-21T07:42:37;100026.28;;;8.45;73.00
69879;BME280;57161;43.136;24.706;2024-02-21T07:45:03;100002.00;;;8.51;71.98
69879;BME280;57161;43.136;24.706;2024-02-21T07:47:28;99985.75;;;8.60;70.97
69879;BME280;57161;43.136;24.706;2024-02-21T07:49:54;100016.84;;;8.81;71.16
69879;BME280;57161;43.136;24.706;2024-02-21T07:52:20;100018.81;;;8.97;70.87
69879;BME280;57161;43.136;24.706;2024-02-21T07:54:45;100013.97;;;9.03;70.57
69879;BME280;57161;43.136;24.706;2024-02-21T07:57:11;100033.53;;;9.39;69.24
69879;BME280;57161;43.136;24.706;2024-02-21T07:59:36;100021.09;;;9.40;69.23
69879;BME280;57161;43.136;24.706;2024-02-21T08:02:02;100031.81;;;9.72;67.82
69879;BME280;57161;43.136;24.706;2024-02-21T08:04:27;100010.47;;;9.74;67.17
69879;BME280;57161;43.136;24.706;2024-02-21T08:06:53;100023.13;;;9.81;66.58
69879;BME280;57161;43.136;24.706;2024-02-21T08:09:21;100014.75;;;9.81;66.85
69879;BME280;57161;43.136;24.706;2024-02-21T08:11:46;100032.28;;;10.11;65.18
69879;BME280;57161;43.136;24.706;2024-02-21T08:14:12;100024.44;;;10.10;64.98
69879;BME280;57161;43.136;24.706;2024-02-21T08:16:37;100037.06;;;10.16;65.29
69879;BME280;57161;43.136;24.706;2024-02-21T08:19:03;100009.38;;;10.18;65.00
69879;BME280;57161;43.136;24.706;2024-02-21T08:21:29;100026.66;;;10.47;65.18
69879;BME280;57161;43.136;24.706;2024-02-21T08:23:55;100026.41;;;10.69;63.79
69879;BME280;57161;43.136;24.706;2024-02-21T08:26:20;100011.22;;;10.65;61.04
69879;BME280;57161;43.136;24.706;2024-02-21T08:28:46;100015.75;;;10.68;62.08
69879;BME280;57161;43.136;24.706;2024-02-21T08:31:18;100030.50;;;10.87;61.42
69879;BME280;57161;43.136;24.706;2024-02-21T08:33:43;100019.84;;;10.86;61.14
69879;BME280;57161;43.136;24.706;2024-02-21T08:36:09;99983.72;;;10.69;60.09
69879;BME280;57161;43.136;24.706;2024-02-21T08:38:42;100001.56;;;10.85;59.61
69879;BME280;57161;43.136;24.706;2024-02-21T08:41:07;100022.53;;;11.16;58.78
69879;BME280;57161;43.136;24.706;2024-02-21T08:43:33;100041.91;;;11.13;58.75
69879;BME280;57161;43.136;24.706;2024-02-21T08:46:00;100024.50;;;11.21;59.23
69879;BME280;57161;43.136;24.706;2024-02-21T08:48:25;100021.47;;;11.37;58.97
69879;BME280;57161;43.136;24.706;2024-02-21T08:50:51;100004.47;;;11.35;58.20
69879;BME280;57161;43.136;24.706;2024-02-21T08:53:16;100005.22;;;11.36;58.40
69879;BME280;57161;43.136;24.706;2024-02-21T08:55:42;100026.03;;;11.59;57.60
69879;BME280;57161;43.136;24.706;2024-02-21T08:58:09;100020.66;;;11.61;58.45
69879;BME280;57161;43.136;24.706;2024-02-21T09:00:35;100023.06;;;11.89;57.10
69879;BME280;57161;43.136;24.706;2024-02-21T09:03:00;100017.97;;;11.88;56.56
69879;BME280;57161;43.136;24.706;2024-02-21T09:05:26;100017.72;;;12.05;56.77
69879;BME280;57161;43.136;24.706;2024-02-21T09:07:51;100024.06;;;12.05;55.43
69879;BME280;57161;43.136;24.706;2024-02-21T09:10:17;100023.44;;;12.12;55.03
69879;BME280;57161;43.136;24.706;2024-02-21T09:12:42;100033.22;;;12.19;55.18
69879;BME280;57161;43.136;24.706;2024-02-21T09:15:09;100022.13;;;12.13;54.83
69879;BME280;57161;43.136;24.706;2024-02-21T09:17:34;100014.47;;;12.14;55.16
69879;BME280;57161;43.136;24.706;2024-02-21T09:20:00;100016.03;;;12.41;54.74
69879;BME280;57161;43.136;24.706;2024-02-21T09:22:29;100011.09;;;12.60;54.86
69879;BME280;57161;43.136;24.706;2024-02-21T09:24:54;100018.84;;;12.81;53.40
69879;BME280;57161;43.136;24.706;2024-02-21T09:27:20;100022.94;;;12.93;52.20
69879;BME280;57161;43.136;24.706;2024-02-21T09:29:46;100025.66;;;12.85;52.37
69879;BME280;57161;43.136;24.706;2024-02-21T09:32:11;100029.44;;;12.75;52.31
69879;BME280;57161;43.136;24.706;2024-02-21T09:34:37;100008.72;;;12.51;52.98
69879;BME280;57161;43.136;24.706;2024-02-21T09:37:03;100010.75;;;12.64;52.71
69879;BME280;57161;43.136;24.706;2024-02-21T09:39:29;99998.16;;;12.71;52.54
69879;BME280;57161;43.136;24.706;2024-02-21T09:41:59;100015.50;;;12.96;52.45
69879;BME280;57161;43.136;24.706;2024-02-21T09:44:33;100021.84;;;13.36;50.88
69879;BME280;57161;43.136;24.706;2024-02-21T09:47:09;99996.34;;;13.34;50.50
69879;BME280;57161;43.136;24.706;2024-02-21T09:49:40;100029.75;;;13.79;49.53
69879;BME280;57161;43.136;24.706;2024-02-21T09:52:07;100015.16;;;13.80;49.71
69879;BME280;57161;43.136;24.706;2024-02-21T09:54:34;100007.44;;;13.94;48.74
69879;BME280;57161;43.136;24.706;2024-02-21T09:57:00;99989.88;;;13.60;48.62
69879;BME280;57161;43.136;24.706;2024-02-21T09:59:28;100005.56;;;13.55;49.33
69879;BME280;57161;43.136;24.706;2024-02-21T10:01:54;99982.72;;;13.72;49.37
69879;BME280;57161;43.136;24.706;2024-02-21T10:04:20;99987.22;;;13.96;48.53
69879;BME280;57161;43.136;24.706;2024-02-21T10:06:46;100000.28;;;14.14;47.70
69879;BME280;57161;43.136;24.706;2024-02-21T10:09:28;99987.97;;;13.55;48.08
69879;BME280;57161;43.136;24.706;2024-02-21T10:12:07;100005.00;;;13.36;48.92
69879;BME280;57161;43.136;24.706;2024-02-21T10:14:33;100004.63;;;13.73;48.91
69879;BME280;57161;43.136;24.706;2024-02-21T10:16:58;99991.69;;;13.91;47.54
69879;BME280;57161;43.136;24.706;2024-02-21T10:19:28;99995.78;;;14.11;46.58
69879;BME280;57161;43.136;24.706;2024-02-21T10:22:04;99959.13;;;13.96;46.80
69879;BME280;57161;43.136;24.706;2024-02-21T10:24:31;99961.84;;;14.09;46.37
69879;BME280;57161;43.136;24.706;2024-02-21T10:27:07;99976.22;;;14.26;46.13
69879;BME280;57161;43.136;24.706;2024-02-21T10:29:37;99970.66;;;14.34;46.16
69879;BME280;57161;43.136;24.706;2024-02-21T10:32:10;99975.56;;;14.41;44.42
69879;BME280;57161;43.136;24.706;2024-02-21T10:34:38;99917.38;;;14.21;45.01
69879;BME280;57161;43.136;24.706;2024-02-21T10:37:05;99918.88;;;14.22;44.87
69879;BME280;57161;43.136;24.706;2024-02-21T10:39:32;99902.63;;;13.99;44.76
69879;BME280;57161;43.136;24.706;2024-02-21T10:42:02;99943.31;;;14.34;44.94
69879;BME280;57161;43.136;24.706;2024-02-21T10:44:32;99941.00;;;14.25;44.52
69879;BME280;57161;43.136;24.706;2024-02-21T10:46:59;99936.47;;;14.22;44.92
69879;BME280;57161;43.136;24.706;2024-02-21T10:49:26;99933.94;;;14.32;45.29
69879;BME280;57161;43.136;24.706;2024-02-21T10:52:48;99933.56;;;14.64;44.31
69879;BME280;57161;43.136;24.706;2024-02-21T10:54:55;99924.59;;;14.73;44.11
69879;BME280;57161;43.136;24.706;2024-02-21T10:57:24;99885.34;;;14.60;43.80
69879;BME280;57161;43.136;24.706;2024-02-21T10:59:51;99897.28;;;14.89;42.98
69879;BME280;57161;43.136;24.706;2024-02-21T11:02:16;99881.91;;;14.90;42.69
69879;BME280;57161;43.136;24.706;2024-02-21T11:04:43;99896.78;;;15.06;41.68
69879;BME280;57161;43.136;24.706;2024-02-21T11:07:10;99906.91;;;15.09;41.26
69879;BME280;57161;43.136;24.706;2024-02-21T11:09:36;99898.53;;;14.65;41.61
69879;BME280;57161;43.136;24.706;2024-02-21T11:12:03;99907.91;;;14.75;42.29
69879;BME280;57161;43.136;24.706;2024-02-21T11:14:29;99904.97;;;14.88;41.57
69879;BME280;57161;43.136;24.706;2024-02-21T11:16:58;99911.03;;;15.00;41.64
69879;BME280;57161;43.136;24.706;2024-02-21T11:19:29;99894.69;;;14.98;41.79
69879;BME280;57161;43.136;24.706;2024-02-21T11:21:56;99892.47;;;15.05;41.83
69879;BME280;57161;43.136;24.706;2024-02-21T11:24:29;99878.56;;;14.99;41.69
69879;BME280;57161;43.136;24.706;2024-02-21T11:27:16;99890.38;;;14.97;41.46
69879;BME280;57161;43.136;24.706;2024-02-21T11:29:49;99894.84;;;14.85;41.40
69879;BME280;57161;43.136;24.706;2024-02-21T11:32:20;99869.47;;;14.70;41.89
69879;BME280;57161;43.136;24.706;2024-02-21T11:35:19;99875.91;;;14.86;41.51
69879;BME280;57161;43.136;24.706;2024-02-21T11:37:44;99883.97;;;14.82;41.67
69879;BME280;57161;43.136;24.706;2024-02-21T11:40:12;99885.50;;;14.98;41.56
69879;BME280;57161;43.136;24.706;2024-02-21T11:42:37;99865.06;;;14.97;41.52
69879;BME280;57161;43.136;24.706;2024-02-21T11:45:03;99873.72;;;15.15;41.03
69879;BME280;57161;43.136;24.706;2024-02-21T11:47:29;99863.16;;;14.92;41.71
69879;BME280;57161;43.136;24.706;2024-02-21T11:49:54;99872.59;;;15.25;41.61
69879;BME280;57161;43.136;24.706;2024-02-21T11:52:25;99873.31;;;15.11;39.61
69879;BME280;57161;43.136;24.706;2024-02-21T11:54:51;99869.72;;;14.95;40.25
69879;BME280;57161;43.136;24.706;2024-02-21T11:57:22;99867.97;;;14.77;40.96
69879;BME280;57161;43.136;24.706;2024-02-21T11:59:48;99874.72;;;14.66;41.91
69879;BME280;57161;43.136;24.706;2024-02-21T12:02:15;99868.34;;;14.65;42.48
69879;BME280;57161;43.136;24.706;2024-02-21T12:04:42;99850.28;;;14.53;42.76
69879;BME280;57161;43.136;24.706;2024-02-21T12:07:07;99860.16;;;14.47;43.49
69879;BME280;57161;43.136;24.706;2024-02-21T12:09:34;99850.28;;;14.17;44.03
69879;BME280;57161;43.136;24.706;2024-02-21T12:12:04;99858.09;;;14.11;44.62
69879;BME280;57161;43.136;24.706;2024-02-21T12:14:31;99849.34;;;13.86;45.20
69879;BME280;57161;43.136;24.706;2024-02-21T12:16:57;99842.25;;;13.93;45.76
69879;BME280;57161;43.136;24.706;2024-02-21T12:19:23;99829.81;;;13.52;46.12
69879;BME280;57161;43.136;24.706;2024-02-21T12:21:49;99834.00;;;13.66;46.31
69879;BME280;57161;43.136;24.706;2024-02-21T12:24:25;99831.72;;;13.86;46.54
69879;BME280;57161;43.136;24.706;2024-02-21T12:26:52;99786.63;;;13.91;45.98
69879;BME280;57161;43.136;24.706;2024-02-21T12:29:19;99836.50;;;14.42;44.26
69879;BME280;57161;43.136;24.706;2024-02-21T12:31:44;99817.72;;;14.29;44.15
69879;BME280;57161;43.136;24.706;2024-02-21T12:34:10;99822.72;;;14.52;43.53
69879;BME280;57161;43.136;24.706;2024-02-21T12:36:41;99799.22;;;14.41;43.67
69879;BME280;57161;43.136;24.706;2024-02-21T12:39:08;99801.59;;;14.30;43.70
69879;BME280;57161;43.136;24.706;2024-02-21T12:41:34;99820.13;;;14.25;44.00
69879;BME280;57161;43.136;24.706;2024-02-21T12:44:01;99815.00;;;14.08;44.07
69879;BME280;57161;43.136;24.706;2024-02-21T12:46:28;99802.91;;;13.93;44.27
69879;BME280;57161;43.136;24.706;2024-02-21T12:48:54;99803.09;;;13.87;43.74
69879;BME280;57161;43.136;24.706;2024-02-21T12:51:19;99796.91;;;13.89;43.22